Time;durP1;ratioP1;P1;durP2;ratioP2;P2;SDS_P1;SDS_P2;PMS_P1;PMS_P2;Temp;Humidity;BMP_temperature;BMP_pressure;BME280_temperature;BME280_humidity;BME280_pressure;Samples;Min_cycle;Max_cycle;Signal;HPM_P1;HPM_P2
2023/02/24 00:00:51;;;;;;;29.55;23.38;;;;;;;;;;520003;28;1046;-71
2023/02/24 00:01:12;;;;;;;30.23;23.45;;;;;;;;;;520670;28;1395;-71
2023/02/24 00:01:28;;;;;;;29.80;23.40;;;;;;;;;;518491;28;1285;-71
2023/02/24 00:01:50;;;;;;;29.60;23.10;;;;;;;;;;519299;28;1288;-71
2023/02/24 00:02:05;;;;;;;28.80;22.83;;;;;;;;;;520488;28;1262;-71
2023/02/24 00:02:20;;;;;;;29.63;23.13;;;;;;;;;;521802;28;1294;-71
2023/02/24 00:02:36;;;;;;;30.00;23.10;;;;;;;;;;521731;28;1167;-71
2023/02/24 00:02:51;;;;;;;30.08;22.67;;;;;;;;;;519472;28;1299;-71
2023/02/24 00:03:09;;;;;;;30.80;23.07;;;;;;;;;;520072;28;1455;-71
2023/02/24 00:03:25;;;;;;;30.63;23.23;;;;;;;;;;518526;28;1118;-71
2023/02/24 00:03:43;;;;;;;29.75;23.10;;;;;;;;;;518691;28;1230;-71
2023/02/24 00:03:59;;;;;;;29.77;22.83;;;;;;;;;;519466;28;1308;-71
2023/02/24 00:04:14;;;;;;;31.45;23.63;;;;;;;;;;517009;28;1438;-71
2023/02/24 00:04:33;;;;;;;31.73;24.07;;;;;;;;;;517385;28;2021;-71
2023/02/24 00:04:51;;;;;;;29.33;23.05;;;;;;;;;;513920;28;1438;-71
2023/02/24 00:05:07;;;;;;;29.08;22.88;;;;;;;;;;519665;28;1557;-71
2023/02/24 00:05:22;;;;;;;29.38;23.50;;;;;;;;;;516166;28;1378;-72
2023/02/24 00:05:38;;;;;;;29.37;23.43;;;;;;;;;;517433;28;1502;-71
2023/02/24 00:05:53;;;;;;;27.85;22.38;;;;;;;;;;516982;28;1317;-71
2023/02/24 00:06:11;;;;;;;27.80;22.50;;;;;;;;;;517749;28;1290;-71
2023/02/24 00:06:35;;;;;;;28.67;22.88;;;;;;;;;;517685;28;1282;-71
2023/02/24 00:06:51;;;;;;;32.00;24.30;;;;;;;;;;516947;28;1466;-72
2023/02/24 00:07:11;;;;;;;31.88;23.95;;;;;;;;;;514278;28;1219;-71
2023/02/24 00:07:28;;;;;;;31.13;23.52;;;;;;;;;;519266;28;1424;-71
2023/02/24 00:07:44;;;;;;;31.52;24.13;;;;;;;;;;519012;28;1458;-71
2023/02/24 00:07:59;;;;;;;32.57;24.60;;;;;;;;;;516694;28;1216;-71
2023/02/24 00:08:15;;;;;;;32.63;24.57;;;;;;;;;;518600;28;1319;-71
2023/02/24 00:08:30;;;;;;;32.30;24.20;;;;;;;;;;518623;28;1195;-71
2023/02/24 00:08:46;;;;;;;31.48;23.45;;;;;;;;;;519137;28;1168;-71
2023/02/24 00:09:21;;;;;;;29.10;22.50;;;;;;;;;;517591;28;1354;-71
2023/02/24 00:09:38;;;;;;;31.73;24.50;;;;;;;;;;521126;28;1345;-71
2023/02/24 00:09:53;;;;;;;31.80;24.45;;;;;;;;;;519936;28;1692;-71
2023/02/24 00:10:10;;;;;;;32.57;24.77;;;;;;;;;;518932;28;1194;-71
2023/02/24 00:10:25;;;;;;;31.77;24.42;;;;;;;;;;519792;28;1123;-71
2023/02/24 00:10:40;;;;;;;31.63;24.37;;;;;;;;;;516972;28;1185;-71
2023/02/24 00:10:56;;;;;;;32.67;24.90;;;;;;;;;;517774;28;1332;-71
2023/02/24 00:11:13;;;;;;;32.87;25.10;;;;;;;;;;515218;28;1227;-71
2023/02/24 00:11:28;;;;;;;31.83;24.67;;;;;;;;;;512221;28;1366;-71
2023/02/24 00:11:52;;;;;;;32.00;24.70;;;;;;;;;;513370;28;1214;-71
2023/02/24 00:12:12;;;;;;;34.50;25.65;;;;;;;;;;512883;28;1511;-71
2023/02/24 00:12:27;;;;;;;32.92;24.67;;;;;;;;;;514642;28;1175;-71
2023/02/24 00:12:45;;;;;;;28.87;23.43;;;;;;;;;;514188;28;1247;-71
2023/02/24 00:13:01;;;;;;;30.70;24.55;;;;;;;;;;515180;28;1454;-71
2023/02/24 00:13:21;;;;;;;32.07;25.07;;;;;;;;;;512289;28;1417;-71
2023/02/24 00:13:36;;;;;;;30.02;23.75;;;;;;;;;;513099;28;1251;-71
2023/02/24 00:13:51;;;;;;;30.70;23.77;;;;;;;;;;510947;28;1377;-71
2023/02/24 00:14:09;;;;;;;31.60;24.23;;;;;;;;;;515374;28;1206;-71
2023/02/24 00:14:33;;;;;;;29.08;23.55;;;;;;;;;;330281;28;10000885;-71
2023/02/24 00:14:48;;;;;;;30.95;24.27;;;;;;;;;;514509;28;1470;-71
2023/02/24 00:15:04;;;;;;;30.93;24.27;;;;;;;;;;515436;28;1142;-71
2023/02/24 00:15:19;;;;;;;30.65;23.60;;;;;;;;;;517199;28;1221;-71
2023/02/24 00:15:35;;;;;;;30.13;23.20;;;;;;;;;;516429;28;1248;-71
2023/02/24 00:16:01;;;;;;;30.03;23.77;;;;;;;;;;517187;28;1292;-71
2023/02/24 00:16:17;;;;;;;30.50;24.02;;;;;;;;;;516266;28;1588;-71
2023/02/24 00:16:33;;;;;;;30.52;23.73;;;;;;;;;;516503;28;1219;-71
2023/02/24 00:16:50;;;;;;;30.63;23.90;;;;;;;;;;516808;28;1283;-71
2023/02/24 00:17:07;;;;;;;30.95;24.13;;;;;;;;;;517999;28;1526;-71
2023/02/24 00:17:26;;;;;;;31.33;24.30;;;;;;;;;;519128;28;1299;-71
2023/02/24 00:17:45;;;;;;;31.10;24.23;;;;;;;;;;519531;28;1449;-71
2023/02/24 00:18:05;;;;;;;30.98;24.58;;;;;;;;;;519683;28;1294;-71
2023/02/24 00:18:21;;;;;;;30.95;24.45;;;;;;;;;;519801;28;1298;-71
2023/02/24 00:18:36;;;;;;;31.20;24.58;;;;;;;;;;517774;28;1262;-71
2023/02/24 00:18:52;;;;;;;32.37;24.80;;;;;;;;;;517556;28;1096;-71
2023/02/24 00:19:07;;;;;;;32.35;25.02;;;;;;;;;;518529;28;1184;-71
2023/02/24 00:19:25;;;;;;;31.13;24.53;;;;;;;;;;519704;28;1503;-71
2023/02/24 00:19:41;;;;;;;31.10;24.15;;;;;;;;;;518489;28;1215;-71
2023/02/24 00:19:56;;;;;;;30.95;23.95;;;;;;;;;;520396;28;1244;-71
2023/02/24 00:20:12;;;;;;;30.83;24.37;;;;;;;;;;520739;28;1290;-71
2023/02/24 00:20:27;;;;;;;31.60;25.10;;;;;;;;;;519496;28;1217;-71
2023/02/24 00:20:43;;;;;;;32.47;25.10;;;;;;;;;;520771;28;1272;-71
2023/02/24 00:21:07;;;;;;;32.58;24.90;;;;;;;;;;518806;28;1362;-71
2023/02/24 00:21:23;;;;;;;30.20;24.40;;;;;;;;;;514074;28;1308;-71
2023/02/24 00:21:38;;;;;;;30.55;24.98;;;;;;;;;;514858;28;1138;-71
2023/02/24 00:21:54;;;;;;;30.90;24.70;;;;;;;;;;516836;28;1586;-70
2023/02/24 00:22:09;;;;;;;30.63;24.10;;;;;;;;;;517610;28;1365;-71
2023/02/24 00:22:25;;;;;;;30.87;24.43;;;;;;;;;;520199;28;1356;-71
2023/02/24 00:22:40;;;;;;;31.20;24.92;;;;;;;;;;518974;28;1272;-71
2023/02/24 00:22:56;;;;;;;31.47;24.83;;;;;;;;;;519673;28;1239;-71
2023/02/24 00:23:11;;;;;;;31.58;24.80;;;;;;;;;;521042;28;1472;-71
2023/02/24 00:23:27;;;;;;;30.98;24.73;;;;;;;;;;517366;28;1242;-71
2023/02/24 00:23:47;;;;;;;30.93;24.60;;;;;;;;;;518041;28;1276;-71
2023/02/24 00:24:03;;;;;;;32.72;25.08;;;;;;;;;;514635;28;1462;-71
2023/02/24 00:24:19;;;;;;;32.15;24.77;;;;;;;;;;515101;28;1925;-71
2023/02/24 00:24:34;;;;;;;31.08;24.77;;;;;;;;;;515608;28;1323;-71
2023/02/24 00:24:52;;;;;;;31.58;24.90;;;;;;;;;;517288;28;1550;-71
2023/02/24 00:25:08;;;;;;;32.25;24.88;;;;;;;;;;516055;28;1271;-71
2023/02/24 00:25:23;;;;;;;32.93;24.87;;;;;;;;;;518919;28;1334;-70
2023/02/24 00:25:38;;;;;;;32.92;25.13;;;;;;;;;;518750;28;1412;-71
2023/02/24 00:25:59;;;;;;;33.20;25.73;;;;;;;;;;522780;28;1334;-71
2023/02/24 00:26:15;;;;;;;33.05;25.75;;;;;;;;;;519396;28;1481;-71
2023/02/24 00:26:31;;;;;;;35.13;25.97;;;;;;;;;;519069;28;1328;-71
2023/02/24 00:26:53;;;;;;;34.57;25.67;;;;;;;;;;521464;28;1216;-70
2023/02/24 00:27:10;;;;;;;32.65;25.13;;;;;;;;;;518526;28;1518;-71
2023/02/24 00:27:26;;;;;;;34.20;25.30;;;;;;;;;;520419;28;1402;-70
2023/02/24 00:27:42;;;;;;;33.10;25.25;;;;;;;;;;521983;28;1358;-71
2023/02/24 00:28:00;;;;;;;32.65;25.35;;;;;;;;;;520099;28;1616;-70
2023/02/24 00:28:15;;;;;;;31.70;24.88;;;;;;;;;;523672;28;1377;-71
2023/02/24 00:28:31;;;;;;;31.90;25.00;;;;;;;;;;524191;28;1207;-71
2023/02/24 00:28:46;;;;;;;32.75;25.38;;;;;;;;;;521896;28;1336;-71
2023/02/24 00:29:07;;;;;;;32.37;25.37;;;;;;;;;;519536;28;1192;-71
2023/02/24 00:29:23;;;;;;;33.72;26.15;;;;;;;;;;524676;28;1464;-70
2023/02/24 00:29:40;;;;;;;35.20;26.70;;;;;;;;;;519903;28;1225;-71
2023/02/24 00:29:56;;;;;;;35.03;26.42;;;;;;;;;;517866;28;1347;-71
2023/02/24 00:30:11;;;;;;;33.50;26.07;;;;;;;;;;518173;28;1570;-70
2023/02/24 00:30:28;;;;;;;33.38;25.73;;;;;;;;;;518947;28;1264;-71
2023/02/24 00:30:43;;;;;;;34.63;25.73;;;;;;;;;;516100;28;1307;-71
2023/02/24 00:31:05;;;;;;;33.67;25.50;;;;;;;;;;515820;28;1281;-70
2023/02/24 00:31:22;;;;;;;32.80;25.63;;;;;;;;;;517268;28;1303;-70
2023/02/24 00:31:40;;;;;;;32.97;25.80;;;;;;;;;;517916;28;1299;-71
2023/02/24 00:32:01;;;;;;;34.17;26.38;;;;;;;;;;519214;28;1394;-71
2023/02/24 00:32:16;;;;;;;33.90;25.65;;;;;;;;;;517394;28;1413;-71
2023/02/24 00:32:31;;;;;;;33.23;25.60;;;;;;;;;;516601;28;1359;-70
2023/02/24 00:32:47;;;;;;;32.57;25.37;;;;;;;;;;519432;28;1250;-71
2023/02/24 00:33:03;;;;;;;33.72;25.70;;;;;;;;;;519472;28;1537;-71
2023/02/24 00:33:22;;;;;;;34.45;26.10;;;;;;;;;;516933;28;1291;-71
2023/02/24 00:33:38;;;;;;;34.25;25.60;;;;;;;;;;517424;28;1350;-71
2023/02/24 00:33:55;;;;;;;34.40;26.00;;;;;;;;;;516362;28;1408;-71
2023/02/24 00:34:14;;;;;;;34.28;26.50;;;;;;;;;;515598;28;1439;-71
2023/02/24 00:34:32;;;;;;;35.53;26.67;;;;;;;;;;516769;28;1394;-71
2023/02/24 00:34:47;;;;;;;35.78;26.85;;;;;;;;;;515405;28;1346;-71
2023/02/24 00:35:03;;;;;;;33.93;26.50;;;;;;;;;;519695;28;1228;-71
2023/02/24 00:35:19;;;;;;;34.17;26.30;;;;;;;;;;519000;28;1241;-71
2023/02/24 00:35:34;;;;;;;35.28;26.45;;;;;;;;;;521268;28;1307;-71
2023/02/24 00:35:50;;;;;;;35.13;26.43;;;;;;;;;;521764;28;1291;-71
2023/02/24 00:36:11;;;;;;;36.63;27.05;;;;;;;;;;519053;28;1358;-71
2023/02/24 00:36:28;;;;;;;38.88;27.77;;;;;;;;;;519451;28;1519;-71
2023/02/24 00:36:43;;;;;;;37.85;27.92;;;;;;;;;;519405;28;1247;-71
2023/02/24 00:36:59;;;;;;;37.83;28.52;;;;;;;;;;519409;28;1318;-71
2023/02/24 00:37:22;;;;;;;37.77;28.50;;;;;;;;;;517018;28;1329;-72
2023/02/24 00:37:38;;;;;;;38.35;28.42;;;;;;;;;;519127;28;1169;-71
2023/02/24 00:37:53;;;;;;;40.83;30.47;;;;;;;;;;518136;28;1456;-71
2023/02/24 00:38:11;;;;;;;42.13;31.37;;;;;;;;;;516398;28;1298;-71
2023/02/24 00:38:30;;;;;;;41.65;31.13;;;;;;;;;;519868;28;1388;-71
2023/02/24 00:38:46;;;;;;;41.03;30.67;;;;;;;;;;515872;28;1549;-71
2023/02/24 00:39:08;;;;;;;40.00;29.80;;;;;;;;;;516578;28;1523;-71
2023/02/24 00:39:32;;;;;;;41.33;31.00;;;;;;;;;;518308;28;1280;-71
2023/02/24 00:39:47;;;;;;;40.75;30.08;;;;;;;;;;520964;28;1478;-71
2023/02/24 00:40:09;;;;;;;39.93;29.93;;;;;;;;;;521702;28;1299;-71
2023/02/24 00:40:25;;;;;;;36.05;27.98;;;;;;;;;;521581;28;1321;-71
2023/02/24 00:40:44;;;;;;;35.72;27.65;;;;;;;;;;521548;28;1364;-72
2023/02/24 00:40:59;;;;;;;35.08;27.27;;;;;;;;;;521215;28;1167;-71
2023/02/24 00:41:18;;;;;;;35.07;27.53;;;;;;;;;;521588;28;1571;-71
2023/02/24 00:41:34;;;;;;;38.58;28.42;;;;;;;;;;521068;28;1262;-71
2023/02/24 00:41:51;;;;;;;38.40;28.10;;;;;;;;;;520411;28;1415;-71
2023/02/24 00:42:07;;;;;;;39.35;28.63;;;;;;;;;;520727;28;1543;-71
2023/02/24 00:42:22;;;;;;;41.43;30.30;;;;;;;;;;519497;28;1246;-71
2023/02/24 00:42:38;;;;;;;43.07;31.83;;;;;;;;;;519241;28;1262;-71
2023/02/24 00:42:54;;;;;;;42.20;31.50;;;;;;;;;;519345;28;1570;-71
2023/02/24 00:43:10;;;;;;;41.87;31.37;;;;;;;;;;520747;28;1429;-71
2023/02/24 00:43:25;;;;;;;42.10;31.55;;;;;;;;;;519183;28;1279;-71
2023/02/24 00:43:48;;;;;;;42.22;31.63;;;;;;;;;;521046;28;1325;-71
2023/02/24 00:44:08;;;;;;;43.70;31.75;;;;;;;;;;519256;28;1313;-71
2023/02/24 00:44:23;;;;;;;42.10;32.10;;;;;;;;;;516327;28;2098;-71
2023/02/24 00:44:42;;;;;;;42.85;32.05;;;;;;;;;;518668;28;1215;-71
2023/02/24 00:44:57;;;;;;;42.42;31.75;;;;;;;;;;515526;28;1287;-71
2023/02/24 00:45:15;;;;;;;43.73;32.53;;;;;;;;;;515190;28;1405;-71
2023/02/24 00:45:32;;;;;;;42.53;32.47;;;;;;;;;;513925;28;1542;-71
2023/02/24 00:45:50;;;;;;;42.95;32.30;;;;;;;;;;513552;28;1498;-71
2023/02/24 00:46:11;;;;;;;44.20;33.10;;;;;;;;;;513254;28;1391;-71
2023/02/24 00:46:30;;;;;;;44.13;32.97;;;;;;;;;;514054;28;1496;-71
2023/02/24 00:46:48;;;;;;;43.67;32.70;;;;;;;;;;515022;28;1401;-71
2023/02/24 00:47:05;;;;;;;44.03;32.30;;;;;;;;;;514923;28;1136;-71
2023/02/24 00:47:21;;;;;;;41.85;31.70;;;;;;;;;;517322;28;1383;-71
2023/02/24 00:47:40;;;;;;;42.08;31.92;;;;;;;;;;519406;28;1256;-70
2023/02/24 00:47:56;;;;;;;42.25;31.55;;;;;;;;;;517970;28;1329;-71
2023/02/24 00:48:14;;;;;;;41.72;30.95;;;;;;;;;;516046;28;1311;-71
2023/02/24 00:48:30;;;;;;;42.50;32.30;;;;;;;;;;514473;28;1303;-71
2023/02/24 00:48:53;;;;;;;41.92;32.83;;;;;;;;;;513168;28;1864;-71
2023/02/24 00:49:15;;;;;;;41.85;32.25;;;;;;;;;;514219;28;1312;-71
2023/02/24 00:49:31;;;;;;;42.10;32.00;;;;;;;;;;516123;28;1351;-71
2023/02/24 00:49:48;;;;;;;42.00;32.35;;;;;;;;;;518807;28;1421;-71
2023/02/24 00:50:04;;;;;;;44.28;32.88;;;;;;;;;;516506;28;1311;-71
2023/02/24 00:50:20;;;;;;;45.35;33.67;;;;;;;;;;517562;28;1410;-71
2023/02/24 00:50:37;;;;;;;43.93;33.60;;;;;;;;;;517185;28;1533;-71
2023/02/24 00:50:53;;;;;;;43.28;33.53;;;;;;;;;;517656;28;1294;-71
2023/02/24 00:51:09;;;;;;;43.63;33.13;;;;;;;;;;516365;28;1286;-71
2023/02/24 00:51:25;;;;;;;44.13;32.38;;;;;;;;;;515010;28;1229;-71
2023/02/24 00:51:44;;;;;;;41.92;31.75;;;;;;;;;;517256;28;1162;-71
2023/02/24 00:52:03;;;;;;;42.55;32.45;;;;;;;;;;518026;28;1412;-71
2023/02/24 00:52:19;;;;;;;42.55;31.92;;;;;;;;;;517163;28;1299;-71
2023/02/24 00:52:35;;;;;;;41.03;31.50;;;;;;;;;;517825;28;1225;-71
2023/02/24 00:52:51;;;;;;;40.60;31.85;;;;;;;;;;518995;28;1280;-71
2023/02/24 00:53:06;;;;;;;42.13;32.17;;;;;;;;;;519634;28;1276;-71
2023/02/24 00:53:21;;;;;;;43.23;32.10;;;;;;;;;;519502;28;1335;-71
2023/02/24 00:53:38;;;;;;;42.40;31.63;;;;;;;;;;515277;28;1333;-71
2023/02/24 00:53:56;;;;;;;44.40;32.35;;;;;;;;;;517560;28;1295;-71
2023/02/24 00:54:13;;;;;;;43.65;32.42;;;;;;;;;;518083;28;1257;-71
2023/02/24 00:54:29;;;;;;;41.13;31.63;;;;;;;;;;519887;28;1394;-71
2023/02/24 00:54:47;;;;;;;41.60;31.75;;;;;;;;;;519642;28;1576;-71
2023/02/24 00:55:12;;;;;;;42.15;32.35;;;;;;;;;;517591;28;1597;-70
2023/02/24 00:55:35;;;;;;;41.70;32.10;;;;;;;;;;518550;28;1481;-71
2023/02/24 00:56:01;;;;;;;43.42;33.20;;;;;;;;;;521219;28;1043;-71
2023/02/24 00:56:16;;;;;;;42.35;32.65;;;;;;;;;;519823;28;1425;-71
2023/02/24 00:56:31;;;;;;;42.95;32.20;;;;;;;;;;518416;28;1453;-71
2023/02/24 00:56:47;;;;;;;41.80;31.23;;;;;;;;;;515316;28;1212;-71
2023/02/24 00:57:02;;;;;;;41.92;31.55;;;;;;;;;;516388;28;1271;-71
2023/02/24 00:57:20;;;;;;;43.40;32.27;;;;;;;;;;514848;28;1403;-70
2023/02/24 00:57:38;;;;;;;42.00;31.83;;;;;;;;;;517063;28;1331;-71
2023/02/24 00:57:53;;;;;;;40.65;31.67;;;;;;;;;;518622;28;1344;-71
2023/02/24 00:58:11;;;;;;;40.03;31.20;;;;;;;;;;515728;28;1312;-71
2023/02/24 00:58:28;;;;;;;39.90;31.10;;;;;;;;;;516422;28;1497;-71
2023/02/24 00:58:44;;;;;;;39.92;31.48;;;;;;;;;;515075;28;1287;-71
2023/02/24 00:59:00;;;;;;;40.80;31.87;;;;;;;;;;515785;28;1430;-71
2023/02/24 00:59:17;;;;;;;43.13;32.00;;;;;;;;;;516489;28;1349;-71
2023/02/24 00:59:34;;;;;;;41.42;31.15;;;;;;;;;;515029;28;1600;-71
2023/02/24 00:59:51;;;;;;;40.95;30.83;;;;;;;;;;515142;28;1393;-71
2023/02/24 01:00:15;;;;;;;43.83;32.20;;;;;;;;;;515131;28;1194;-71
2023/02/24 01:00:35;;;;;;;43.85;33.10;;;;;;;;;;517679;28;1437;-71
2023/02/24 01:00:51;;;;;;;43.05;32.50;;;;;;;;;;520030;28;1519;-71
2023/02/24 01:01:18;;;;;;;43.63;32.97;;;;;;;;;;520461;28;1235;-71
2023/02/24 01:01:34;;;;;;;45.00;33.83;;;;;;;;;;518891;28;1251;-71
2023/02/24 01:01:49;;;;;;;45.23;34.27;;;;;;;;;;519615;28;1545;-71
2023/02/24 01:02:10;;;;;;;41.65;32.63;;;;;;;;;;519370;28;1451;-71
2023/02/24 01:02:25;;;;;;;40.13;31.08;;;;;;;;;;517219;28;1447;-71
2023/02/24 01:02:43;;;;;;;40.57;31.23;;;;;;;;;;515521;28;1398;-71
2023/02/24 01:02:58;;;;;;;40.97;31.27;;;;;;;;;;517696;28;1417;-71
2023/02/24 01:03:14;;;;;;;41.40;31.33;;;;;;;;;;514335;28;1303;-71
2023/02/24 01:03:30;;;;;;;41.85;32.00;;;;;;;;;;516443;28;1431;-71
2023/02/24 01:03:49;;;;;;;43.85;32.95;;;;;;;;;;515733;28;1383;-71
2023/02/24 01:04:10;;;;;;;42.58;32.50;;;;;;;;;;513659;28;1425;-71
2023/02/24 01:04:28;;;;;;;42.78;32.58;;;;;;;;;;515670;28;1981;-71
2023/02/24 01:04:43;;;;;;;44.00;33.60;;;;;;;;;;513779;28;1486;-71
2023/02/24 01:05:00;;;;;;;44.70;33.73;;;;;;;;;;516639;28;1470;-71
2023/02/24 01:05:15;;;;;;;44.50;33.80;;;;;;;;;;516824;28;1370;-71
2023/02/24 01:05:34;;;;;;;45.00;33.87;;;;;;;;;;517604;28;1548;-71
2023/02/24 01:05:49;;;;;;;43.50;32.67;;;;;;;;;;518325;28;1388;-71
2023/02/24 01:06:05;;;;;;;44.57;33.10;;;;;;;;;;518831;28;1603;-71
2023/02/24 01:06:23;;;;;;;44.50;33.58;;;;;;;;;;519464;28;1357;-71
2023/02/24 01:06:45;;;;;;;45.03;33.33;;;;;;;;;;518268;28;1572;-71
2023/02/24 01:07:00;;;;;;;43.38;32.70;;;;;;;;;;514551;28;1310;-73
2023/02/24 01:07:15;;;;;;;40.70;31.53;;;;;;;;;;516580;28;1252;-72
2023/02/24 01:07:31;;;;;;;41.38;31.80;;;;;;;;;;515771;28;1213;-72
2023/02/24 01:07:46;;;;;;;41.60;32.10;;;;;;;;;;516206;28;1145;-73
2023/02/24 01:08:02;;;;;;;43.20;32.35;;;;;;;;;;518908;28;1298;-72
2023/02/24 01:08:20;;;;;;;44.83;33.23;;;;;;;;;;514888;28;1329;-72
2023/02/24 01:08:39;;;;;;;45.78;33.65;;;;;;;;;;515419;28;1388;-72
2023/02/24 01:08:56;;;;;;;42.17;32.03;;;;;;;;;;517101;28;1430;-73
2023/02/24 01:09:14;;;;;;;40.22;31.13;;;;;;;;;;518877;28;1395;-73
2023/02/24 01:09:31;;;;;;;43.67;33.45;;;;;;;;;;519680;28;1300;-73
2023/02/24 01:09:49;;;;;;;44.78;34.22;;;;;;;;;;520721;28;1282;-73
2023/02/24 01:10:07;;;;;;;42.53;33.20;;;;;;;;;;522176;28;1437;-73
2023/02/24 01:10:25;;;;;;;41.35;32.28;;;;;;;;;;520015;28;1289;-73
2023/02/24 01:11:45;;;;;;;41.45;32.17;;;;;;;;;;519683;28;1406;-73
2023/02/24 01:12:48;;;;;;;43.80;32.63;;;;;;;;;;522678;28;1093;-72
2023/02/24 01:13:03;;;;;;;40.33;31.23;;;;;;;;;;522782;28;1388;-72
2023/02/24 01:13:18;;;;;;;40.67;31.58;;;;;;;;;;523561;28;1417;-73
2023/02/24 01:13:34;;;;;;;41.13;31.77;;;;;;;;;;521114;28;1335;-72
2023/02/24 01:13:49;;;;;;;43.90;33.13;;;;;;;;;;521461;28;1167;-72
2023/02/24 01:14:16;;;;;;;43.40;33.30;;;;;;;;;;521636;28;1359;-72
2023/02/24 01:14:33;;;;;;;40.88;31.92;;;;;;;;;;519154;28;1332;-72
2023/02/24 01:14:51;;;;;;;40.33;32.00;;;;;;;;;;516415;28;1331;-73
2023/02/24 01:15:07;;;;;;;40.78;32.03;;;;;;;;;;517725;28;1337;-72
2023/02/24 01:15:23;;;;;;;41.30;32.17;;;;;;;;;;517777;28;1405;-72
2023/02/24 01:15:38;;;;;;;41.40;32.42;;;;;;;;;;516937;28;1274;-72
2023/02/24 01:16:01;;;;;;;41.93;32.70;;;;;;;;;;517185;28;1501;-73
2023/02/24 01:16:19;;;;;;;40.92;31.50;;;;;;;;;;516568;28;1402;-73
2023/02/24 01:16:34;;;;;;;41.67;32.45;;;;;;;;;;520349;28;1225;-73
2023/02/24 01:16:50;;;;;;;42.07;32.83;;;;;;;;;;519776;28;1337;-73
2023/02/24 01:17:07;;;;;;;41.25;32.50;;;;;;;;;;518760;28;1297;-73
2023/02/24 01:17:24;;;;;;;39.80;31.52;;;;;;;;;;519723;28;1291;-73
2023/02/24 01:17:39;;;;;;;42.83;32.72;;;;;;;;;;519882;28;1369;-72
2023/02/24 01:17:54;;;;;;;46.57;34.50;;;;;;;;;;521608;28;1125;-73
2023/02/24 01:18:10;;;;;;;46.37;34.43;;;;;;;;;;521192;28;1239;-72
2023/02/24 01:18:25;;;;;;;45.00;33.65;;;;;;;;;;518875;28;1382;-73
2023/02/24 01:18:44;;;;;;;44.27;33.20;;;;;;;;;;517657;28;1482;-73
2023/02/24 01:19:01;;;;;;;44.15;33.03;;;;;;;;;;517961;28;1353;-73
2023/02/24 01:19:18;;;;;;;43.00;32.45;;;;;;;;;;514766;28;1355;-73
2023/02/24 01:19:34;;;;;;;41.40;31.75;;;;;;;;;;513118;28;1547;-73
2023/02/24 01:19:50;;;;;;;41.60;31.67;;;;;;;;;;514653;28;1406;-73
2023/02/24 01:20:17;;;;;;;43.35;32.40;;;;;;;;;;513958;28;1325;-73
2023/02/24 01:20:32;;;;;;;42.80;32.83;;;;;;;;;;517367;28;1278;-74
2023/02/24 01:20:48;;;;;;;42.65;32.70;;;;;;;;;;515141;28;1226;-73
2023/02/24 01:21:03;;;;;;;43.17;33.37;;;;;;;;;;515953;28;1358;-73
2023/02/24 01:21:19;;;;;;;44.88;34.17;;;;;;;;;;517881;28;1330;-73
2023/02/24 01:21:34;;;;;;;44.37;33.87;;;;;;;;;;517666;28;1593;-73
2023/02/24 01:21:54;;;;;;;43.20;33.33;;;;;;;;;;516953;28;1325;-73
2023/02/24 01:22:13;;;;;;;42.00;32.83;;;;;;;;;;517964;28;1321;-74
2023/02/24 01:22:29;;;;;;;44.08;33.50;;;;;;;;;;519591;28;1354;-73
2023/02/24 01:22:55;;;;;;;45.13;33.93;;;;;;;;;;519868;28;1137;-73
2023/02/24 01:23:10;;;;;;;43.58;32.72;;;;;;;;;;517795;28;1389;-73
2023/02/24 01:23:26;;;;;;;42.92;33.15;;;;;;;;;;519774;28;1558;-73
2023/02/24 01:23:41;;;;;;;45.07;34.40;;;;;;;;;;521648;28;1209;-73
2023/02/24 01:23:57;;;;;;;44.60;33.45;;;;;;;;;;518805;28;1299;-73
2023/02/24 01:24:14;;;;;;;43.53;32.67;;;;;;;;;;519590;28;1276;-73
2023/02/24 01:24:32;;;;;;;43.83;33.35;;;;;;;;;;519693;28;1923;-73
2023/02/24 01:24:48;;;;;;;43.58;34.03;;;;;;;;;;519809;28;1537;-73
2023/02/24 01:25:06;;;;;;;45.33;34.33;;;;;;;;;;516356;28;1232;-73
2023/02/24 01:25:22;;;;;;;47.65;35.20;;;;;;;;;;519416;28;1397;-73
2023/02/24 01:25:37;;;;;;;45.73;34.63;;;;;;;;;;520906;28;1448;-72
2023/02/24 01:25:53;;;;;;;43.67;33.70;;;;;;;;;;519779;28;1357;-72
2023/02/24 01:26:09;;;;;;;42.33;32.77;;;;;;;;;;514979;28;1231;-73
2023/02/24 01:26:25;;;;;;;42.28;32.58;;;;;;;;;;518236;28;1205;-72
2023/02/24 01:26:41;;;;;;;42.47;32.70;;;;;;;;;;519871;28;1510;-72
2023/02/24 01:26:57;;;;;;;43.50;33.08;;;;;;;;;;521046;28;1286;-73
2023/02/24 01:27:16;;;;;;;42.77;33.13;;;;;;;;;;522038;28;1219;-73
2023/02/24 01:27:31;;;;;;;42.15;32.67;;;;;;;;;;519025;28;1449;-72
2023/02/24 01:27:47;;;;;;;42.50;32.40;;;;;;;;;;519251;28;1517;-72
2023/02/24 01:28:02;;;;;;;42.17;32.80;;;;;;;;;;521256;28;1260;-72
2023/02/24 01:28:18;;;;;;;42.93;32.93;;;;;;;;;;522357;28;1291;-72
2023/02/24 01:28:33;;;;;;;43.38;33.08;;;;;;;;;;521691;28;1319;-72
2023/02/24 01:28:48;;;;;;;41.93;32.33;;;;;;;;;;520164;28;1481;-72
2023/02/24 01:29:04;;;;;;;41.03;31.67;;;;;;;;;;518370;28;1426;-73
2023/02/24 01:29:22;;;;;;;42.30;32.43;;;;;;;;;;519805;28;1244;-72
2023/02/24 01:29:38;;;;;;;41.72;31.95;;;;;;;;;;518240;28;1202;-73
2023/02/24 01:29:53;;;;;;;41.88;32.08;;;;;;;;;;518830;28;1403;-72
2023/02/24 01:30:14;;;;;;;42.87;32.60;;;;;;;;;;519421;28;1186;-72
2023/02/24 01:30:30;;;;;;;40.97;31.95;;;;;;;;;;520111;28;1148;-72
2023/02/24 01:30:45;;;;;;;41.50;31.70;;;;;;;;;;522103;28;1441;-72
2023/02/24 01:31:01;;;;;;;40.70;31.40;;;;;;;;;;519943;28;1372;-73
2023/02/24 01:31:19;;;;;;;40.80;31.65;;;;;;;;;;519715;28;1250;-73
2023/02/24 01:31:37;;;;;;;40.63;31.17;;;;;;;;;;515754;28;1267;-72
2023/02/24 01:31:56;;;;;;;39.92;31.17;;;;;;;;;;517946;28;1386;-73
2023/02/24 01:32:15;;;;;;;41.50;31.95;;;;;;;;;;515028;28;1310;-73
2023/02/24 01:32:31;;;;;;;41.88;31.63;;;;;;;;;;514736;28;1433;-72
2023/02/24 01:32:46;;;;;;;41.72;30.92;;;;;;;;;;516961;28;1201;-72
2023/02/24 01:33:02;;;;;;;42.43;31.07;;;;;;;;;;515334;28;1322;-73
2023/02/24 01:33:17;;;;;;;41.72;31.45;;;;;;;;;;516087;28;1386;-72
2023/02/24 01:33:36;;;;;;;40.87;31.37;;;;;;;;;;519256;28;1500;-72
2023/02/24 01:33:51;;;;;;;41.55;31.80;;;;;;;;;;515548;28;1315;-72
2023/02/24 01:34:09;;;;;;;42.33;31.73;;;;;;;;;;518694;28;1119;-72
2023/02/24 01:34:26;;;;;;;41.70;31.25;;;;;;;;;;519588;28;1295;-72
2023/02/24 01:34:41;;;;;;;41.60;31.20;;;;;;;;;;518968;28;1544;-73
2023/02/24 01:34:58;;;;;;;41.57;30.83;;;;;;;;;;518262;28;1357;-72
2023/02/24 01:35:13;;;;;;;41.67;31.08;;;;;;;;;;514802;28;1382;-72
2023/02/24 01:35:30;;;;;;;41.67;31.57;;;;;;;;;;517473;28;1260;-72
2023/02/24 01:35:46;;;;;;;42.80;31.90;;;;;;;;;;516666;28;1330;-73
2023/02/24 01:36:15;;;;;;;42.58;32.00;;;;;;;;;;520005;28;1283;-72
2023/02/24 01:36:31;;;;;;;43.22;31.90;;;;;;;;;;519467;28;1303;-72
2023/02/24 01:36:47;;;;;;;43.22;32.22;;;;;;;;;;518515;28;1396;-72
2023/02/24 01:37:02;;;;;;;43.57;31.93;;;;;;;;;;522046;28;1519;-73
2023/02/24 01:37:18;;;;;;;41.27;30.93;;;;;;;;;;517761;28;1197;-72
2023/02/24 01:37:34;;;;;;;41.03;30.42;;;;;;;;;;516439;28;1207;-72
2023/02/24 01:37:49;;;;;;;41.08;30.42;;;;;;;;;;516804;28;1163;-72
2023/02/24 01:38:04;;;;;;;42.87;31.00;;;;;;;;;;515746;28;1181;-72
2023/02/24 01:38:22;;;;;;;42.90;30.90;;;;;;;;;;517644;28;1278;-72
2023/02/24 01:38:38;;;;;;;41.83;30.80;;;;;;;;;;514154;28;1357;-72
2023/02/24 01:38:53;;;;;;;43.08;31.75;;;;;;;;;;516381;28;1379;-72
2023/02/24 01:39:10;;;;;;;43.07;31.77;;;;;;;;;;517864;28;1204;-73
2023/02/24 01:39:25;;;;;;;42.88;31.70;;;;;;;;;;516801;28;1203;-72
2023/02/24 01:39:43;;;;;;;44.10;31.90;;;;;;;;;;515988;28;1192;-72
2023/02/24 01:39:58;;;;;;;42.53;31.63;;;;;;;;;;516579;28;1314;-72
2023/02/24 01:40:19;;;;;;;42.38;31.65;;;;;;;;;;517552;28;1343;-72
2023/02/24 01:40:34;;;;;;;42.42;31.27;;;;;;;;;;515211;28;1305;-72
2023/02/24 01:40:58;;;;;;;43.23;31.63;;;;;;;;;;515014;28;1194;-72
2023/02/24 01:41:20;;;;;;;42.97;31.20;;;;;;;;;;516765;28;1490;-72
2023/02/24 01:41:37;;;;;;;41.47;30.92;;;;;;;;;;518893;28;1295;-73
2023/02/24 01:41:52;;;;;;;41.20;30.75;;;;;;;;;;520847;28;1370;-72
2023/02/24 01:42:15;;;;;;;40.33;30.73;;;;;;;;;;520734;28;1312;-73
2023/02/24 01:42:31;;;;;;;42.08;30.70;;;;;;;;;;520142;28;1377;-72
2023/02/24 01:42:48;;;;;;;43.08;31.23;;;;;;;;;;521766;28;1539;-72
2023/02/24 01:43:07;;;;;;;40.58;30.63;;;;;;;;;;519589;28;1413;-72
2023/02/24 01:43:23;;;;;;;42.38;30.42;;;;;;;;;;519282;28;1387;-72
2023/02/24 01:44:04;;;;;;;42.30;30.53;;;;;;;;;;517803;28;1289;-72
2023/02/24 01:44:23;;;;;;;40.92;31.42;;;;;;;;;;515898;28;1516;-72
2023/02/24 01:44:42;;;;;;;42.65;32.00;;;;;;;;;;516348;28;1185;-72
2023/02/24 01:45:05;;;;;;;44.08;32.38;;;;;;;;;;514203;28;1406;-73
2023/02/24 01:45:27;;;;;;;41.70;31.00;;;;;;;;;;515919;28;1302;-72
2023/02/24 01:45:42;;;;;;;39.17;30.08;;;;;;;;;;516287;28;1319;-72
2023/02/24 01:45:58;;;;;;;39.67;30.37;;;;;;;;;;516782;28;1331;-73
2023/02/24 01:46:16;;;;;;;39.78;30.50;;;;;;;;;;518098;28;1288;-73